createdAt,value
2018-01-19T00:10:59.157Z,98931.83
2018-01-19T00:13:26.623Z,98933.45
2018-01-19T00:15:54.087Z,98940.05
2018-01-19T00:18:21.567Z,98934.25
2018-01-19T00:20:49.027Z,98940.80
2018-01-19T00:23:18.460Z,98932.09
2018-01-19T00:25:45.915Z,98932.63
2018-01-19T00:28:13.408Z,98931.66
2018-01-19T00:30:40.878Z,98935.50
2018-01-19T00:33:08.356Z,98936.89
2018-01-19T00:35:35.813Z,98931.99
2018-01-19T00:38:03.278Z,98937.19
2018-01-19T00:40:30.728Z,98936.78
2018-01-19T00:42:58.202Z,98939.28
2018-01-19T00:45:25.654Z,98942.84
2018-01-19T00:47:53.121Z,98941.25
2018-01-19T00:50:20.599Z,98945.68
2018-01-19T00:52:48.078Z,98954.13
2018-01-19T00:55:15.526Z,98955.47
2018-01-19T00:57:42.994Z,98953.72
2018-01-19T01:00:10.442Z,98952.44
2018-01-19T01:02:37.906Z,98957.55
2018-01-19T01:05:05.355Z,98958.14
2018-01-19T01:07:32.823Z,98959.08
2018-01-19T01:10:00.311Z,98960.41
2018-01-19T01:12:27.781Z,98971.60
2018-01-19T01:14:55.236Z,98967.77
2018-01-19T01:17:22.739Z,98965.94
2018-01-19T01:19:50.186Z,98970.61
2018-01-19T01:22:17.646Z,98975.13
2018-01-19T01:24:45.092Z,98983.02
2018-01-19T01:27:12.562Z,98987.08
2018-01-19T01:29:40.020Z,98986.50
2018-01-19T01:32:07.490Z,98992.70
2018-01-19T01:34:34.943Z,98998.02
2018-01-19T01:37:02.427Z,98992.45
2018-01-19T01:39:29.877Z,98985.44
2018-01-19T01:41:57.333Z,98997.43
2018-01-19T01:44:24.822Z,98991.59
2018-01-19T01:46:52.282Z,98991.78
2018-01-19T01:49:19.760Z,98992.78
2018-01-19T01:51:47.207Z,98990.52
2018-01-19T01:54:14.692Z,98991.88
2018-01-19T01:56:42.140Z,98995.33
2018-01-19T01:59:09.622Z,98993.12
2018-01-19T02:01:37.075Z,98989.28
2018-01-19T02:04:04.547Z,98990.03
2018-01-19T02:06:32.002Z,98993.16
2018-01-19T02:08:59.471Z,98996.88
2018-01-19T02:11:26.934Z,99001.08
2018-01-19T02:13:54.401Z,98994.09
2018-01-19T02:16:21.858Z,98993.03
2018-01-19T02:18:49.332Z,98992.56
2018-01-19T02:21:16.788Z,98992.75
2018-01-19T02:23:44.258Z,98987.39
2018-01-19T02:26:11.706Z,98980.15
2018-01-19T02:28:39.195Z,98989.31
2018-01-19T02:31:06.638Z,98990.38
2018-01-19T02:33:34.111Z,98989.94
2018-01-19T02:36:01.558Z,98992.97
2018-01-19T02:38:29.025Z,98991.91
2018-01-19T02:40:56.476Z,99002.45
2018-01-19T02:43:23.950Z,98990.63
2018-01-19T02:45:51.410Z,99001.54
2018-01-19T02:48:18.892Z,98986.33
2018-01-19T02:50:46.350Z,99004.35
2018-01-19T02:53:13.824Z,99004.28
2018-01-19T02:55:41.281Z,99003.54
2018-01-19T02:58:08.811Z,99010.02
2018-01-19T03:00:36.255Z,99019.09
2018-01-19T03:03:03.718Z,99017.88
2018-01-19T03:05:31.183Z,99018.03
2018-01-19T03:07:58.635Z,99031.61
2018-01-19T03:10:26.102Z,99027.20
2018-01-19T03:12:53.554Z,99034.48
2018-01-19T03:15:21.257Z,99047.16
2018-01-19T03:17:48.709Z,99043.26
2018-01-19T03:20:16.175Z,99040.09
2018-01-19T03:22:43.634Z,99033.83
2018-01-19T03:25:11.102Z,99045.22
2018-01-19T03:27:38.561Z,99052.81
2018-01-19T03:30:06.024Z,99068.77
2018-01-19T03:32:33.479Z,99070.66
2018-01-19T03:35:00.950Z,99055.90
2018-01-19T03:37:28.406Z,99060.20
2018-01-19T03:39:55.878Z,99067.52
2018-01-19T03:42:23.323Z,99072.56
2018-01-19T03:44:50.793Z,99078.56
2018-01-19T03:47:18.242Z,99073.60
2018-01-19T03:49:45.725Z,99079.20
2018-01-19T03:52:13.182Z,99076.94
2018-01-19T03:54:40.646Z,99079.37
2018-01-19T03:57:08.104Z,99086.42
2018-01-19T03:59:35.568Z,99088.19
2018-01-19T04:02:03.023Z,99085.52
2018-01-19T04:04:30.502Z,99086.91
2018-01-19T04:06:57.953Z,99081.42
2018-01-19T04:09:25.422Z,99078.50
2018-01-19T04:11:52.880Z,99090.27
2018-01-19T04:14:20.351Z,99091.48
2018-01-19T04:16:47.799Z,99089.16
2018-01-19T04:19:15.262Z,99087.75
2018-01-19T04:21:42.714Z,99085.50
2018-01-19T04:24:10.219Z,99086.49
2018-01-19T04:26:37.670Z,99074.61
2018-01-19T04:29:05.131Z,99087.52
2018-01-19T04:31:32.598Z,99088.16
2018-01-19T04:34:00.043Z,99101.40
2018-01-19T04:36:27.523Z,99103.80
2018-01-19T04:38:54.967Z,99102.76
2018-01-19T04:41:22.440Z,99105.53
2018-01-19T04:43:49.947Z,99097.39
2018-01-19T04:46:17.414Z,99119.05
2018-01-19T04:48:44.867Z,99112.77
2018-01-19T04:51:12.339Z,99113.48
2018-01-19T04:53:39.789Z,99132.54
2018-01-19T04:56:07.373Z,99127.27
2018-01-19T04:58:34.830Z,99129.83
2018-01-19T05:01:02.302Z,99134.95
2018-01-19T05:03:29.755Z,99128.44
2018-01-19T05:05:57.239Z,99140.44
2018-01-19T05:08:24.687Z,99141.75
2018-01-19T05:10:52.157Z,99138.52
2018-01-19T05:13:19.606Z,99144.73
2018-01-19T05:15:47.079Z,99138.30
2018-01-19T05:18:14.531Z,99147.60
2018-01-19T05:20:42.010Z,99155.66
2018-01-19T05:23:09.470Z,99150.99
2018-01-19T05:25:36.940Z,99148.09
2018-01-19T05:28:04.396Z,99158.40
2018-01-19T05:30:31.902Z,99146.86
2018-01-19T05:32:59.356Z,99159.79
2018-01-19T05:35:26.831Z,99174.55
2018-01-19T05:37:54.300Z,99171.77
2018-01-19T05:40:21.767Z,99172.34
2018-01-19T05:42:49.221Z,99176.81
2018-01-19T05:45:16.686Z,99183.86
2018-01-19T05:47:44.163Z,99180.53
2018-01-19T05:50:11.627Z,99184.69
2018-01-19T05:52:39.116Z,99189.70
2018-01-19T05:55:06.558Z,99194.36
2018-01-19T05:57:34.034Z,99189.27
2018-01-19T06:00:01.572Z,99204.02
2018-01-19T06:02:29.051Z,99192.41
2018-01-19T06:04:56.510Z,99206.74
2018-01-19T06:07:23.983Z,99217.80
2018-01-19T06:09:51.435Z,99220.14
2018-01-19T06:12:18.914Z,99223.34
2018-01-19T06:14:46.359Z,99219.80
2018-01-19T06:17:13.828Z,99211.55
2018-01-19T06:19:41.284Z,99225.39
2018-01-19T06:22:08.764Z,99231.06
2018-01-19T06:24:36.206Z,99235.30
2018-01-19T06:27:03.674Z,99217.25
2018-01-19T06:29:31.133Z,99251.48
2018-01-19T06:31:58.608Z,99262.20
2018-01-19T06:34:26.066Z,99233.44
2018-01-19T06:36:53.545Z,99273.52
2018-01-19T06:39:20.995Z,99278.84
2018-01-19T06:41:48.519Z,99271.27
2018-01-19T06:44:15.959Z,99280.98
2018-01-19T06:46:43.431Z,99284.53
2018-01-19T06:49:10.882Z,99287.88
2018-01-19T06:51:38.379Z,99283.58
2018-01-19T06:54:05.827Z,99260.81
2018-01-19T06:56:33.294Z,99283.48
2018-01-19T06:59:00.743Z,99290.02
2018-01-19T07:01:28.222Z,99291.16
2018-01-19T07:03:55.695Z,99303.83
2018-01-19T07:06:23.164Z,99307.42
2018-01-19T07:08:50.615Z,99310.51
2018-01-19T07:11:18.065Z,99313.60
2018-01-19T07:13:45.536Z,99318.62
2018-01-19T07:16:12.996Z,99327.08
2018-01-19T07:18:40.467Z,99325.33
2018-01-19T07:21:07.928Z,99335.30
2018-01-19T07:23:35.399Z,99333.33
2018-01-19T07:26:02.847Z,99338.22
2018-01-19T07:28:30.319Z,99344.58
2018-01-19T07:30:57.766Z,99343.38
2018-01-19T07:33:25.244Z,99346.16
2018-01-19T07:35:52.699Z,99361.73
2018-01-19T07:38:20.192Z,99356.97
2018-01-19T07:40:47.647Z,99362.92
2018-01-19T07:43:15.128Z,99371.79
2018-01-19T07:45:42.587Z,99381.79
2018-01-19T07:48:10.074Z,99383.09
2018-01-19T07:50:37.528Z,99393.92
2018-01-19T07:53:05.015Z,99386.05
2018-01-19T07:55:32.467Z,99396.41
2018-01-19T07:57:59.943Z,99390.65
2018-01-19T08:00:27.390Z,99397.48
2018-01-19T08:02:54.855Z,99403.41
2018-01-19T08:05:22.330Z,99413.28
2018-01-19T08:07:49.801Z,99408.96
2018-01-19T08:10:17.332Z,99406.73
2018-01-19T08:12:44.820Z,99423.98
2018-01-19T08:15:12.276Z,99435.07
2018-01-19T08:17:39.742Z,99436.52
2018-01-19T08:20:07.194Z,99429.11
2018-01-19T08:22:34.658Z,99444.87
2018-01-19T08:25:02.107Z,99444.69
2018-01-19T08:27:29.575Z,99437.53
2018-01-19T08:29:57.025Z,99445.69
2018-01-19T08:32:24.504Z,99445.45
2018-01-19T08:34:52.029Z,99448.33
2018-01-19T08:37:19.459Z,99457.38
2018-01-19T08:39:46.922Z,99452.68
2018-01-19T08:42:14.378Z,99459.90
2018-01-19T08:44:41.846Z,99469.33
2018-01-19T08:47:09.298Z,99469.67
2018-01-19T08:49:36.763Z,99475.66
2018-01-19T08:52:04.215Z,99472.30
2018-01-19T08:54:31.688Z,99473.47
2018-01-19T08:56:59.146Z,99483.69
2018-01-19T08:59:26.631Z,99480.70
2018-01-19T09:01:54.102Z,99479.03
2018-01-19T09:04:21.571Z,99473.72
2018-01-19T09:06:49.036Z,99473.22
2018-01-19T09:09:16.507Z,99479.78
2018-01-19T09:11:43.963Z,99487.06
2018-01-19T09:14:11.438Z,99483.84
2018-01-19T09:16:38.946Z,99485.12
2018-01-19T09:19:06.422Z,99484.61
2018-01-19T09:21:33.879Z,99499.50
2018-01-19T09:24:01.350Z,99490.94
2018-01-19T09:26:28.800Z,99506.88
2018-01-19T09:34:39.334Z,99503.77
2018-01-19T09:37:06.779Z,99499.73
2018-01-19T09:39:34.255Z,99516.25
2018-01-19T09:42:01.712Z,99518.36
2018-01-19T09:44:29.204Z,99529.14
2018-01-19T09:46:56.669Z,99523.60
2018-01-19T09:49:24.134Z,99531.14
2018-01-19T09:51:51.582Z,99535.81
2018-01-19T09:54:19.048Z,99532.06
2018-01-19T09:56:46.498Z,99529.87
2018-01-19T09:59:13.962Z,99526.73
2018-01-19T10:01:41.411Z,99529.70
2018-01-19T10:04:08.872Z,99541.51
2018-01-19T10:06:36.330Z,99550.19
2018-01-19T10:09:03.811Z,99548.63
2018-01-19T10:11:31.266Z,99545.76
2018-01-19T10:13:58.744Z,99553.03
2018-01-19T10:16:26.194Z,99540.70
2018-01-19T10:18:54.346Z,99544.26
2018-01-19T10:21:21.803Z,99551.66
2018-01-19T10:23:49.259Z,99549.95
2018-01-19T10:26:16.726Z,99551.91
2018-01-19T10:28:44.174Z,99546.80
2018-01-19T10:31:11.634Z,99551.45
2018-01-19T10:33:39.083Z,99559.23
2018-01-19T10:36:06.556Z,99553.47
2018-01-19T10:38:34.006Z,99557.40
2018-01-19T10:41:01.479Z,99550.31
2018-01-19T10:43:28.936Z,99560.41
2018-01-19T10:45:56.411Z,99557.09
2018-01-19T10:48:23.927Z,99559.95
2018-01-19T10:50:52.243Z,99555.98
2018-01-19T10:53:19.699Z,99561.48
2018-01-19T10:55:47.171Z,99559.22
2018-01-19T10:58:14.623Z,99564.83
2018-01-19T11:00:42.100Z,99556.87
2018-01-19T11:03:09.560Z,99566.52
2018-01-19T11:05:37.043Z,99570.77
2018-01-19T11:08:04.487Z,99564.20
2018-01-19T11:10:31.959Z,99570.14
2018-01-19T11:12:59.414Z,99565.13
2018-01-19T11:15:26.900Z,99570.97
2018-01-19T11:17:54.352Z,99570.22
2018-01-19T11:20:21.825Z,99554.48
2018-01-19T11:22:49.276Z,99553.42
2018-01-19T11:25:16.781Z,99557.94
2018-01-19T11:27:44.217Z,99565.75
2018-01-19T11:30:11.688Z,99549.39
2018-01-19T11:32:39.143Z,99556.59
2018-01-19T11:35:06.614Z,99549.91
2018-01-19T11:37:34.095Z,99552.25
2018-01-19T11:40:01.567Z,99553.49
2018-01-19T11:42:29.028Z,99544.48
2018-01-19T11:44:56.502Z,99551.14
2018-01-19T11:47:23.949Z,99553.60
2018-01-19T11:49:51.415Z,99542.49
2018-01-19T11:52:18.890Z,99546.05
2018-01-19T11:54:46.352Z,99546.25
2018-01-19T11:57:13.815Z,99546.52
2018-01-19T11:59:41.266Z,99541.33
2018-01-19T12:02:08.738Z,99544.54
2018-01-19T12:04:36.228Z,99542.90
2018-01-19T12:07:03.707Z,99541.56
2018-01-19T12:09:31.162Z,99537.01
2018-01-19T12:11:58.637Z,99531.80
2018-01-19T12:14:26.092Z,99532.44
2018-01-19T12:16:53.558Z,99515.20
2018-01-19T12:19:21.006Z,99528.00
2018-01-19T12:21:48.474Z,99530.64
2018-01-19T12:24:15.943Z,99533.68
2018-01-19T12:26:43.418Z,99528.70
2018-01-19T12:29:10.873Z,99527.19
2018-01-19T12:31:38.392Z,99520.52
2018-01-19T12:34:05.862Z,99520.45
2018-01-19T12:36:33.334Z,99519.14
2018-01-19T12:39:00.786Z,99513.68
2018-01-19T12:41:28.262Z,99514.63
2018-01-19T12:43:55.726Z,99513.72
2018-01-19T12:46:23.198Z,99519.20
2018-01-19T12:48:50.652Z,99520.54
2018-01-19T12:51:18.124Z,99510.29
2018-01-19T12:53:45.574Z,99525.20
2018-01-19T12:56:13.043Z,99520.37
2018-01-19T12:58:40.491Z,99516.70
2018-01-19T13:01:07.990Z,99519.05
2018-01-19T13:03:35.452Z,99524.12
2018-01-19T13:06:02.931Z,99525.73
2018-01-19T13:08:30.394Z,99530.70
2018-01-19T13:10:57.868Z,99523.14
2018-01-19T13:13:25.327Z,99526.45
2018-01-19T13:15:52.770Z,99515.13
2018-01-19T13:18:20.238Z,99527.48
2018-01-19T13:20:47.707Z,99525.17
2018-01-19T13:23:15.231Z,99529.27
2018-01-19T13:25:42.651Z,99531.56
2018-01-19T13:28:10.118Z,99531.20
2018-01-19T13:30:37.579Z,99530.36
2018-01-19T13:33:05.049Z,99525.89
2018-01-19T13:35:32.498Z,99528.08
2018-01-19T13:37:59.980Z,99522.49
2018-01-19T13:40:27.439Z,99518.85
2018-01-19T13:42:54.910Z,99524.02
2018-01-19T13:45:22.367Z,99520.31
2018-01-19T13:47:49.844Z,99519.06
2018-01-19T13:50:17.310Z,99509.11
2018-01-19T13:52:44.789Z,99514.23
2018-01-19T13:55:12.243Z,99510.05
2018-01-19T13:57:39.714Z,99511.03
2018-01-19T14:00:07.170Z,99505.55
2018-01-19T14:02:34.642Z,99493.00
2018-01-19T14:05:02.107Z,99492.30
2018-01-19T14:07:29.626Z,99477.11
2018-01-19T14:09:57.071Z,99501.14
2018-01-19T14:12:24.537Z,99498.61
2018-01-19T14:14:52.006Z,99498.39
2018-01-19T14:17:19.487Z,99502.65
2018-01-19T14:19:46.949Z,99494.92
2018-01-19T14:22:14.433Z,99502.38
2018-01-19T14:24:41.898Z,99502.89
2018-01-19T14:27:09.379Z,99504.66
2018-01-19T14:29:36.830Z,99513.62
2018-01-19T14:32:04.331Z,99513.11
2018-01-19T14:34:31.778Z,99515.52
2018-01-19T14:36:59.372Z,99512.94
2018-01-19T14:39:26.853Z,99515.30
2018-01-19T14:41:54.311Z,99505.53
2018-01-19T14:44:21.778Z,99504.30
2018-01-19T14:46:49.245Z,99505.50
2018-01-19T14:49:16.718Z,99502.77
2018-01-19T14:51:44.162Z,99507.35
2018-01-19T14:54:11.636Z,99509.24
2018-01-19T14:56:39.162Z,99505.98
2018-01-19T14:59:06.650Z,99505.63
2018-01-19T15:01:34.100Z,99509.02
2018-01-19T15:04:01.572Z,99503.52
2018-01-19T15:06:29.032Z,99509.75
2018-01-19T15:08:56.498Z,99503.66
2018-01-19T15:11:23.947Z,99505.56
2018-01-19T15:13:51.441Z,99506.91
2018-01-19T15:16:18.903Z,99501.56
2018-01-19T15:18:46.390Z,99501.34
2018-01-19T15:21:13.839Z,99501.77
2018-01-19T15:23:41.310Z,99505.55
2018-01-19T15:26:08.771Z,99505.14
2018-01-19T15:28:37.318Z,99507.27
2018-01-19T15:31:04.782Z,99506.32
2018-01-19T15:33:32.267Z,99501.64
2018-01-19T15:35:59.759Z,99504.22
2018-01-19T15:38:27.240Z,99497.55
2018-01-19T15:40:54.713Z,99499.57
2018-01-19T15:43:22.189Z,99493.48
2018-01-19T15:45:49.663Z,99488.31
2018-01-19T15:48:17.134Z,99501.23
2018-01-19T15:50:44.591Z,99499.53
2018-01-19T15:53:12.062Z,99496.72
2018-01-19T15:55:39.516Z,99495.75
2018-01-19T15:58:06.986Z,99497.31
2018-01-19T16:00:34.431Z,99489.73
2018-01-19T16:03:01.883Z,99493.17
2018-01-19T16:05:29.410Z,99494.17
2018-01-19T16:07:56.878Z,99488.63
2018-01-19T16:10:24.355Z,99490.42
2018-01-19T16:12:52.774Z,99497.51
2018-01-19T16:15:20.250Z,99492.31
2018-01-19T16:17:47.766Z,99489.00
2018-01-19T16:20:15.694Z,99478.13
2018-01-19T16:22:43.310Z,99477.75
2018-01-19T16:25:10.791Z,99483.98
2018-01-19T16:27:38.347Z,99490.02
2018-01-19T16:30:05.866Z,99490.42
2018-01-19T16:32:33.343Z,99488.54
2018-01-19T16:35:00.832Z,99485.57
2018-01-19T16:37:28.290Z,99488.39
2018-01-19T16:39:55.827Z,99497.72
2018-01-19T16:42:23.287Z,99499.39
2018-01-19T16:44:50.779Z,99499.64
2018-01-19T16:47:18.232Z,99503.61
2018-01-19T16:49:45.701Z,99506.88
2018-01-19T16:52:13.171Z,99503.83
2018-01-19T16:54:40.654Z,99501.66
2018-01-19T16:57:08.123Z,99507.52
2018-01-19T16:59:35.642Z,99507.48
2018-01-19T17:02:03.102Z,99506.23
2018-01-19T17:04:30.583Z,99504.42
2018-01-19T17:06:58.038Z,99507.17
2018-01-19T17:09:25.518Z,99505.80
2018-01-19T17:11:52.994Z,99504.45
2018-01-19T17:14:20.477Z,99512.50
2018-01-19T17:16:47.935Z,99510.33
2018-01-19T17:19:15.413Z,99506.20
2018-01-19T17:21:42.874Z,99512.98
2018-01-19T17:24:10.343Z,99510.95
2018-01-19T17:26:37.792Z,99509.42
2018-01-19T17:29:05.254Z,99511.68
2018-01-19T17:31:32.740Z,99511.14
2018-01-19T17:34:05.906Z,99519.08
2018-01-19T17:36:33.395Z,99520.69
2018-01-19T17:39:00.842Z,99518.66
2018-01-19T17:41:28.359Z,99523.59
2018-01-19T17:43:55.923Z,99532.82
2018-01-19T17:46:23.436Z,99537.30
2018-01-19T17:48:50.900Z,99534.06
2018-01-19T17:51:19.348Z,99538.27
2018-01-19T17:53:46.794Z,99541.68
2018-01-19T17:56:14.286Z,99544.45
2018-01-19T17:58:41.742Z,99538.68
2018-01-19T18:01:13.338Z,99547.04
2018-01-19T18:03:40.787Z,99541.83
2018-01-19T18:06:08.267Z,99543.37
2018-01-19T18:08:35.723Z,99539.88
2018-01-19T18:11:03.199Z,99532.34
2018-01-19T18:13:30.724Z,99537.31
2018-01-19T18:15:58.206Z,99542.05
2018-01-19T18:18:25.654Z,99547.84
2018-01-19T18:20:53.153Z,99553.45
2018-01-19T18:23:20.610Z,99546.50
2018-01-19T18:25:48.088Z,99549.37
2018-01-19T18:28:15.542Z,99543.73
2018-01-19T18:30:43.075Z,99545.02
2018-01-19T18:33:10.535Z,99548.13
2018-01-19T18:35:55.994Z,99538.64
2018-01-19T18:38:23.451Z,99526.39
2018-01-19T18:40:50.923Z,99533.75
2018-01-19T18:43:18.379Z,99531.17
2018-01-19T18:45:45.863Z,99529.19
2018-01-19T18:48:13.313Z,99537.02
2018-01-19T18:50:40.785Z,99539.09
2018-01-19T18:53:08.238Z,99537.38
2018-01-19T18:55:36.728Z,99540.52
2018-01-19T18:58:04.171Z,99536.38
2018-01-19T19:00:31.650Z,99541.19
2018-01-19T19:02:59.119Z,99554.02
2018-01-19T19:05:26.678Z,99548.54
2018-01-19T19:07:54.100Z,99543.36
2018-01-19T19:10:21.555Z,99537.95
2018-01-19T19:12:49.026Z,99536.86
2018-01-19T19:15:16.475Z,99543.13
2018-01-19T19:17:43.970Z,99538.74
2018-01-19T19:20:11.417Z,99534.83
2018-01-19T19:22:38.887Z,99539.70
2018-01-19T19:25:07.323Z,99539.22
2018-01-19T19:27:34.798Z,99535.02
2018-01-19T19:30:02.255Z,99529.13
2018-01-19T19:32:29.722Z,99538.39
2018-01-19T19:34:57.176Z,99536.00
2018-01-19T19:37:25.635Z,99540.19
2018-01-19T19:39:53.123Z,99541.86
2018-01-19T19:42:20.600Z,99521.84
2018-01-19T19:44:48.062Z,99526.31
2018-01-19T19:47:22.564Z,99533.42
2018-01-19T19:49:50.018Z,99533.28
2018-01-19T19:52:17.524Z,99528.53
2018-01-19T19:54:44.973Z,99521.84
2018-01-19T19:57:12.454Z,99523.84
2018-01-19T19:59:39.910Z,99521.34
2018-01-19T20:02:07.402Z,99535.73
2018-01-19T20:04:34.850Z,99531.59
2018-01-19T20:07:02.314Z,99532.76
2018-01-19T20:09:29.767Z,99531.13
2018-01-19T20:11:57.254Z,99535.27
2018-01-19T20:14:24.744Z,99531.89
2018-01-19T20:16:52.238Z,99536.09
2018-01-19T20:19:19.694Z,99529.11
2018-01-19T20:21:47.174Z,99532.23
2018-01-19T20:24:14.628Z,99525.30
2018-01-19T20:26:42.098Z,99528.75
2018-01-19T20:29:09.605Z,99531.76
2018-01-19T20:31:37.053Z,99529.46
2018-01-19T20:34:04.507Z,99542.53
2018-01-19T20:36:32.053Z,99538.97
2018-01-19T20:38:59.535Z,99536.11
2018-01-19T20:41:26.992Z,99535.22
2018-01-19T20:43:55.446Z,99530.59
2018-01-19T20:46:22.917Z,99545.42
2018-01-19T20:48:50.383Z,99540.62
2018-01-19T20:51:17.891Z,99537.10
2018-01-19T20:53:45.359Z,99539.47
2018-01-19T20:56:12.807Z,99546.83
2018-01-19T20:58:40.278Z,99555.27
2018-01-19T21:01:07.747Z,99553.48
2018-01-19T21:03:35.226Z,99558.68
2018-01-19T21:06:02.676Z,99559.34
2018-01-19T21:08:36.499Z,99557.97
2018-01-19T21:11:09.309Z,99551.36
2018-01-19T21:13:36.775Z,99558.54
2018-01-19T21:16:04.254Z,99551.81
2018-01-19T21:18:31.718Z,99559.61
2018-01-19T21:20:59.167Z,99559.28
2018-01-19T21:23:26.637Z,99559.27
2018-01-19T21:25:54.107Z,99557.29
2018-01-19T21:28:21.610Z,99559.00
2018-01-19T21:30:49.062Z,99565.73
2018-01-19T21:33:16.534Z,99567.48
2018-01-19T21:35:43.980Z,99567.69
2018-01-19T21:38:11.446Z,99565.06
2018-01-19T21:40:38.910Z,99562.56
2018-01-19T21:43:06.380Z,99561.92
2018-01-19T21:45:33.839Z,99565.16
2018-01-19T21:48:01.315Z,99564.05
2018-01-19T21:50:28.779Z,99574.61
2018-01-19T21:52:56.249Z,99567.50
2018-01-19T21:55:23.739Z,99575.64
2018-01-19T21:57:51.218Z,99573.22
2018-01-19T22:00:18.685Z,99579.10
2018-01-19T22:02:46.167Z,99580.34
2018-01-19T22:05:19.294Z,99577.29
2018-01-19T22:07:46.766Z,99577.39
2018-01-19T22:10:14.229Z,99574.07
2018-01-19T22:12:41.676Z,99590.59
2018-01-19T22:15:09.159Z,99577.08
2018-01-19T22:17:36.611Z,99574.36
2018-01-19T22:20:04.087Z,99573.09
2018-01-19T22:22:31.530Z,99574.16
2018-01-19T22:24:59.006Z,99576.47
2018-01-19T22:27:26.466Z,99570.00
2018-01-19T22:29:53.941Z,99577.25
2018-01-19T22:32:21.389Z,99577.12
2018-01-19T22:34:48.864Z,99577.53
2018-01-19T22:37:16.323Z,99576.20
2018-01-19T22:39:43.806Z,99576.39
2018-01-19T22:42:12.237Z,99579.84
2018-01-19T22:44:39.707Z,99571.25
2018-01-19T22:47:07.166Z,99572.31
2018-01-19T22:49:34.630Z,99575.63
2018-01-19T22:52:02.078Z,99576.38
2018-01-19T22:54:29.558Z,99575.17
2018-01-19T22:56:57.011Z,99576.09
2018-01-19T22:59:24.487Z,99581.31
2018-01-19T23:01:51.941Z,99574.16
2018-01-19T23:04:19.406Z,99573.59
2018-01-19T23:06:46.864Z,99577.62
2018-01-19T23:09:14.331Z,99580.77
2018-01-19T23:11:41.778Z,99577.03
2018-01-19T23:14:09.255Z,99578.42
2018-01-19T23:16:36.706Z,99570.61
2018-01-19T23:19:04.177Z,99578.78
2018-01-19T23:21:31.630Z,99580.13
2018-01-19T23:24:00.136Z,99581.73
2018-01-19T23:26:27.586Z,99575.22
2018-01-19T23:28:55.073Z,99575.59
2018-01-19T23:31:22.526Z,99572.73
2018-01-19T23:33:49.983Z,99564.33
2018-01-19T23:36:17.461Z,99566.31
2018-01-19T23:38:44.918Z,99559.94
2018-01-19T23:41:12.391Z,99575.78
2018-01-19T23:43:39.848Z,99579.28
2018-01-19T23:46:07.319Z,99572.21
2018-01-19T23:48:34.771Z,99564.66
2018-01-19T23:51:02.335Z,99570.70
2018-01-19T23:53:29.794Z,99571.30
2018-01-19T23:55:57.267Z,99566.75
2018-01-19T23:58:24.711Z,99572.88
